Time;durP1;ratioP1;P1;durP2;ratioP2;P2;SDS_P1;SDS_P2;PMS_P1;PMS_P2;Temp;Humidity;BMP_temperature;BMP_pressure;BME280_temperature;BME280_humidity;BME280_pressure;Samples;Min_cycle;Max_cycle;Signal;HPM_P1;HPM_P2
2023/04/22 00:02:13;;;;;;;2.10;1.90;;;18.60;46.50;;;;;;5951575;24;20163;-86
2023/04/22 00:05:02;;;;;;;2.13;1.60;;;18.50;46.40;;;;;;5972611;24;20168;-84
2023/04/22 00:07:32;;;;;;;2.75;1.70;;;18.60;46.50;;;;;;5950962;23;20181;-84
2023/04/22 00:10:12;;;;;;;1.92;1.77;;;18.60;46.50;;;;;;5952006;23;20156;-85
2023/04/22 00:13:03;;;;;;;2.13;1.92;;;18.60;46.40;;;;;;5982892;24;20151;-84
2023/04/22 00:15:55;;;;;;;2.05;1.70;;;18.60;46.40;;;;;;6043398;23;20193;-85
2023/04/22 00:18:54;;;;;;;1.95;1.75;;;18.60;46.40;;;;;;6106260;23;20156;-85
2023/04/22 00:21:37;;;;;;;2.45;1.90;;;18.60;46.30;;;;;;6026893;23;20182;-85
2023/04/22 00:24:39;;;;;;;1.95;1.73;;;18.70;46.50;;;;;;5998024;23;20149;-85
2023/04/22 00:27:28;;;;;;;2.63;1.80;;;18.60;46.40;;;;;;6057683;23;20181;-84
2023/04/22 00:30:23;;;;;;;1.77;1.67;;;18.60;46.40;;;;;;6014681;23;20150;-84
2023/04/22 00:32:58;;;;;;;2.28;1.80;;;18.60;46.50;;;;;;5955903;24;20156;-86
2023/04/22 00:35:40;;;;;;;2.75;1.85;;;18.60;46.60;;;;;;5957609;24;20176;-84
2023/04/22 00:38:25;;;;;;;2.03;1.67;;;18.60;46.40;;;;;;5878680;24;20157;-85
2023/04/22 00:41:03;;;;;;;2.05;1.80;;;18.60;46.30;;;;;;5896326;24;20229;-85
2023/04/22 00:43:48;;;;;;;1.48;1.38;;;18.60;46.40;;;;;;5877055;24;20156;-85
2023/04/22 00:46:19;;;;;;;4.15;2.13;;;18.60;46.40;;;;;;5905403;24;20157;-85
2023/04/22 00:49:03;;;;;;;1.92;1.50;;;18.60;46.50;;;;;;5900263;24;20161;-84
2023/04/22 00:52:03;;;;;;;1.75;1.63;;;18.60;46.60;;;;;;5910763;24;20164;-85
2023/04/22 00:54:29;;;;;;;1.75;1.65;;;18.50;46.60;;;;;;5932954;24;20616;-84
2023/04/22 00:57:14;;;;;;;3.95;1.80;;;18.50;46.60;;;;;;5955408;24;20236;-85
2023/04/22 00:59:41;;;;;;;1.65;1.55;;;18.60;46.60;;;;;;5934453;24;20136;-85
2023/04/22 01:02:14;;;;;;;2.75;1.80;;;18.50;46.60;;;;;;5928101;24;20167;-85
2023/04/22 01:04:46;;;;;;;3.45;1.77;;;18.50;46.60;;;;;;5958672;24;20182;-85
2023/04/22 01:07:28;;;;;;;1.95;1.75;;;18.50;46.60;;;;;;6024108;23;20186;-85
2023/04/22 01:10:02;;;;;;;2.55;1.83;;;18.50;46.60;;;;;;5996340;23;20177;-84
2023/04/22 01:12:39;;;;;;;2.65;1.70;;;18.50;46.70;;;;;;6016660;23;20267;-85
2023/04/22 01:15:27;;;;;;;2.03;1.80;;;18.50;46.70;;;;;;6039550;23;20169;-85
2023/04/22 01:18:19;;;;;;;2.15;1.70;;;18.50;46.60;;;;;;6054438;23;20212;-85
2023/04/22 01:20:50;;;;;;;1.63;1.52;;;18.50;46.80;;;;;;6072245;23;20137;-85
2023/04/22 01:23:19;;;;;;;1.80;1.70;;;18.40;46.70;;;;;;6049136;23;20153;-85
2023/04/22 01:25:47;;;;;;;2.55;2.00;;;18.50;46.70;;;;;;6011912;23;20202;-85
2023/04/22 01:29:00;;;;;;;2.30;1.83;;;18.50;46.60;;;;;;6011327;23;20230;-85
2023/04/22 01:31:47;;;;;;;1.95;1.75;;;18.50;46.70;;;;;;5978543;24;20163;-84
2023/04/22 01:34:21;;;;;;;2.78;1.80;;;18.50;46.60;;;;;;5989565;23;20143;-85
2023/04/22 01:37:05;;;;;;;1.90;1.70;;;18.60;46.80;;;;;;6007277;24;20174;-84
2023/04/22 01:39:47;;;;;;;1.65;1.52;;;18.50;46.70;;;;;;6062428;23;20190;-85
2023/04/22 01:42:18;;;;;;;2.00;1.80;;;18.50;46.70;;;;;;6063624;23;20153;-85
2023/04/22 01:44:49;;;;;;;2.95;2.05;;;18.50;46.80;;;;;;6006011;24;20181;-84
2023/04/22 01:47:59;;;;;;;1.90;1.75;;;18.50;46.80;;;;;;5983297;24;20163;-85
2023/04/22 01:50:31;;;;;;;2.55;1.90;;;18.50;46.80;;;;;;5978773;24;20208;-84
2023/04/22 01:53:07;;;;;;;2.75;1.77;;;18.50;46.80;;;;;;5955163;24;20164;-85
2023/04/22 01:55:38;;;;;;;2.00;1.70;;;18.50;46.80;;;;;;6001904;24;20183;-85
2023/04/22 01:58:11;;;;;;;2.28;1.83;;;18.40;46.70;;;;;;5932498;24;20139;-86
2023/04/22 02:00:55;;;;;;;2.05;1.85;;;18.40;46.80;;;;;;5978955;24;20163;-85
2023/04/22 02:03:24;;;;;;;2.30;1.90;;;18.40;46.90;;;;;;6022776;23;20158;-85
2023/04/22 02:06:19;;;;;;;3.15;1.85;;;18.40;46.80;;;;;;5987901;23;20139;-85
2023/04/22 02:08:48;;;;;;;2.63;1.80;;;18.50;46.80;;;;;;6026581;23;20153;-85
2023/04/22 02:11:26;;;;;;;3.00;1.83;;;18.40;46.80;;;;;;6068179;23;20153;-85
2023/04/22 02:14:03;;;;;;;2.00;1.70;;;18.40;46.80;;;;;;6068645;23;20157;-84
2023/04/22 02:16:40;;;;;;;2.85;1.70;;;18.40;46.90;;;;;;5998048;23;20291;-84
2023/04/22 02:19:15;;;;;;;2.13;1.92;;;18.40;46.90;;;;;;6068296;23;20161;-84
2023/04/22 02:22:00;;;;;;;3.40;1.50;;;18.40;46.90;;;;;;6062775;23;20160;-84
2023/04/22 02:24:31;;;;;;;2.50;2.00;;;18.40;46.90;;;;;;6062428;23;20162;-84
2023/04/22 02:27:02;;;;;;;2.58;1.77;;;18.40;46.90;;;;;;6068784;23;20237;-85
2023/04/22 02:30:07;;;;;;;2.00;1.75;;;18.40;47.00;;;;;;6034265;23;20150;-84
2023/04/22 02:33:20;;;;;;;2.25;1.67;;;18.40;47.00;;;;;;5977803;24;20184;-85
2023/04/22 02:35:56;;;;;;;2.25;1.48;;;18.40;46.90;;;;;;6034837;23;20175;-85
2023/04/22 02:39:05;;;;;;;2.55;2.05;;;18.40;47.10;;;;;;5986840;23;20163;-86
2023/04/22 02:41:52;;;;;;;2.05;1.73;;;18.40;47.10;;;;;;6080162;23;20153;-85
2023/04/22 02:44:42;;;;;;;2.35;1.70;;;18.40;47.10;;;;;;6069794;23;20224;-85
2023/04/22 02:47:18;;;;;;;2.22;1.85;;;18.30;47.10;;;;;;6056836;23;20157;-84
2023/04/22 02:49:57;;;;;;;3.00;1.92;;;18.30;47.10;;;;;;6070522;23;20200;-85
2023/04/22 02:52:32;;;;;;;2.10;1.90;;;18.30;47.10;;;;;;6013260;23;20138;-85
2023/04/22 02:55:27;;;;;;;2.00;1.80;;;18.30;47.10;;;;;;6036931;23;20150;-85
2023/04/22 02:58:05;;;;;;;2.38;1.85;;;18.30;47.20;;;;;;6036924;23;20166;-84
2023/04/22 03:00:55;;;;;;;1.92;1.70;;;18.30;47.20;;;;;;6051708;23;20145;-85
2023/04/22 03:03:36;;;;;;;2.40;2.00;;;18.30;47.20;;;;;;6066288;23;20138;-85
2023/04/22 03:06:20;;;;;;;1.92;1.73;;;18.30;47.30;;;;;;6065163;23;20162;-85
2023/04/22 03:08:50;;;;;;;2.40;2.00;;;18.30;47.20;;;;;;6006575;23;20147;-85
2023/04/22 03:11:40;;;;;;;2.00;1.73;;;18.30;47.20;;;;;;6032240;23;20202;-85
2023/04/22 03:14:25;;;;;;;2.80;1.92;;;18.30;47.30;;;;;;6007821;23;20143;-84
2023/04/22 03:17:39;;;;;;;;;;;;;;;;;;;;;
2023/04/22 03:20:31;;;;;;;2.00;1.85;;;18.30;47.40;;;;;;6008250;23;20155;-85
2023/04/22 03:23:06;;;;;;;2.05;1.83;;;18.30;47.30;;;;;;5998496;23;20167;-85
2023/04/22 03:25:49;;;;;;;2.00;1.63;;;18.30;47.40;;;;;;6016490;23;20159;-85
2023/04/22 03:28:47;;;;;;;1.98;1.83;;;18.30;47.30;;;;;;5979674;23;20184;-85
2023/04/22 03:31:30;;;;;;;2.53;1.83;;;18.30;47.30;;;;;;5980442;24;20327;-85
2023/04/22 03:34:16;;;;;;;;;;;;;;;;;;;;;
2023/04/22 03:37:09;;;;;;;2.33;1.70;;;18.30;47.40;;;;;;5973386;24;20194;-84
2023/04/22 03:39:55;;;;;;;2.28;1.77;;;18.30;47.30;;;;;;6000014;23;20160;-85
2023/04/22 03:42:24;;;;;;;2.30;1.90;;;18.30;47.30;;;;;;6037620;23;20158;-84
2023/04/22 03:45:19;;;;;;;2.10;1.70;;;18.20;47.20;;;;;;6037780;23;20153;-86
2023/04/22 06:33:26;;;;;;;2.08;1.60;;;18.60;46.20;;;;;;6212489;22;20203;-85
2023/04/22 06:35:55;;;;;;;1.70;1.60;;;18.70;46.20;;;;;;6236082;22;20171;-87
2023/04/22 06:38:25;;;;;;;1.80;1.70;;;18.70;46.20;;;;;;6226182;23;20215;-86
2023/04/22 06:40:56;;;;;;;2.13;1.80;;;18.70;46.40;;;;;;6199418;23;20150;-87
2023/04/22 06:43:22;;;;;;;3.38;1.88;;;18.70;46.60;;;;;;6191462;23;20153;-85
2023/04/22 06:45:48;;;;;;;1.95;1.75;;;18.70;46.60;;;;;;6172001;23;20242;-84
2023/04/22 06:48:21;;;;;;;2.67;1.60;;;18.70;46.60;;;;;;6219646;23;20172;-84
2023/04/22 06:50:48;;;;;;;2.05;1.67;;;18.70;46.50;;;;;;6192630;23;20533;-85
2023/04/22 06:53:16;;;;;;;1.83;1.73;;;18.70;46.80;;;;;;6194086;23;20142;-85
2023/04/22 06:55:49;;;;;;;4.05;1.83;;;18.70;46.80;;;;;;6197083;23;20177;-84
2023/04/22 06:58:14;;;;;;;3.22;1.85;;;18.70;46.80;;;;;;6194739;23;20158;-83
2023/04/22 07:00:46;;;;;;;5.68;1.85;;;18.70;47.20;;;;;;6167350;23;20188;-83
2023/04/22 07:03:12;;;;;;;2.78;1.83;;;18.80;47.40;;;;;;6168281;23;20186;-82
2023/04/22 07:05:37;;;;;;;2.35;1.90;;;18.90;47.40;;;;;;6162291;23;20146;-81
2023/04/22 07:08:03;;;;;;;3.33;1.90;;;19.00;47.00;;;;;;6189557;23;20154;-80
2023/04/22 07:10:30;;;;;;;4.75;2.00;;;19.10;47.00;;;;;;6224460;22;20156;-84
2023/04/22 07:12:57;;;;;;;4.40;2.00;;;19.10;47.00;;;;;;6174740;22;20239;-83
2023/04/22 07:15:26;;;;;;;6.15;1.73;;;19.10;47.30;;;;;;6281441;22;20144;-81
2023/04/22 07:17:52;;;;;;;3.28;1.77;;;19.20;46.70;;;;;;6311832;22;20219;-82
2023/04/22 07:20:22;;;;;;;2.33;1.88;;;19.20;46.90;;;;;;6284152;22;20129;-84
2023/04/22 07:22:48;;;;;;;3.40;1.83;;;19.30;46.70;;;;;;6207259;22;20144;-85
2023/04/22 07:25:14;;;;;;;4.50;1.98;;;19.30;46.50;;;;;;6259775;22;20211;-84
2023/04/22 07:27:48;;;;;;;4.32;2.00;;;19.30;46.50;;;;;;6258989;22;20125;-82
2023/04/22 07:30:18;;;;;;;9.85;1.83;;;19.30;46.70;;;;;;6231653;22;20178;-84
2023/04/22 07:32:44;;;;;;;2.63;1.70;;;19.40;47.00;;;;;;6233622;22;20187;-81
2023/04/22 07:35:10;;;;;;;4.72;2.10;;;19.40;46.80;;;;;;6236821;22;20151;-84
2023/04/22 07:37:43;;;;;;;3.47;1.60;;;19.50;46.60;;;;;;6238946;22;20489;-81
2023/04/22 07:40:12;;;;;;;6.28;1.80;;;19.50;46.60;;;;;;6289009;22;20137;-82
2023/04/22 07:42:38;;;;;;;5.05;1.90;;;19.30;46.50;;;;;;6239579;22;20252;-83
2023/04/22 07:45:07;;;;;;;2.97;1.58;;;19.30;47.00;;;;;;6262038;22;20140;-82
2023/04/22 07:47:35;;;;;;;3.72;1.98;;;19.20;47.20;;;;;;6265511;22;20431;-83
2023/04/22 07:50:11;;;;;;;6.55;2.20;;;19.10;47.10;;;;;;6242752;22;20219;-85
2023/04/22 07:52:41;;;;;;;3.13;1.67;;;19.10;47.20;;;;;;6196963;23;20145;-84
2023/04/22 07:55:07;;;;;;;3.38;1.95;;;19.10;47.20;;;;;;6198932;23;20205;-82
2023/04/22 07:57:37;;;;;;;2.55;1.98;;;19.10;47.20;;;;;;6222698;23;20182;-82
2023/04/22 08:00:06;;;;;;;3.35;1.70;;;19.20;47.30;;;;;;6170281;23;20228;-83
2023/04/22 08:02:33;;;;;;;5.07;1.80;;;19.10;47.20;;;;;;6217166;23;20130;-83
2023/04/22 08:05:01;;;;;;;4.05;1.95;;;19.10;47.40;;;;;;6195868;23;20570;-83
2023/04/22 08:07:29;;;;;;;5.43;2.00;;;19.10;47.40;;;;;;6194073;23;20274;-84
2023/04/22 08:09:59;;;;;;;4.13;2.00;;;19.10;47.40;;;;;;6192035;23;20273;-83
2023/04/22 08:12:32;;;;;;;7.70;2.20;;;19.10;47.50;;;;;;6215642;23;20214;-83
2023/04/22 08:14:58;;;;;;;4.95;2.38;;;19.20;47.80;;;;;;6140459;23;20458;-83
2023/04/22 08:17:23;;;;;;;8.20;2.10;;;19.20;47.70;;;;;;6192858;23;20216;-83
2023/04/22 08:19:49;;;;;;;13.18;2.45;;;19.30;47.60;;;;;;6191792;23;20577;-81
2023/04/22 08:22:18;;;;;;;5.57;1.85;;;19.20;47.30;;;;;;6168275;23;20154;-83
2023/04/22 08:24:48;;;;;;;3.88;1.90;;;19.30;47.60;;;;;;6219851;23;20127;-83
2023/04/22 08:27:14;;;;;;;12.40;2.58;;;19.30;47.50;;;;;;6139531;23;20728;-83
2023/04/22 08:29:43;;;;;;;8.45;2.00;;;19.30;47.50;;;;;;6253646;22;20148;-83
2023/04/22 08:32:09;;;;;;;12.05;2.50;;;19.40;47.30;;;;;;6283371;22;20219;-83
2023/04/22 08:34:38;;;;;;;9.60;2.28;;;19.40;47.50;;;;;;6192244;23;20198;-82
2023/04/22 08:37:04;;;;;;;10.00;2.15;;;19.50;47.80;;;;;;6220343;23;20178;-83
2023/04/22 08:39:34;;;;;;;10.50;2.40;;;19.50;46.90;;;;;;6169394;23;20158;-84
2023/04/22 08:42:03;;;;;;;11.35;2.53;;;19.50;47.50;;;;;;6167764;23;20150;-85
2023/04/22 08:44:33;;;;;;;20.30;2.90;;;19.50;48.30;;;;;;6156555;23;20287;-83
2023/04/22 08:46:59;;;;;;;13.48;2.20;;;19.60;47.50;;;;;;6111632;23;20192;-84
2023/04/22 08:49:28;;;;;;;17.70;2.78;;;19.60;47.20;;;;;;6132122;23;20292;-83
2023/04/22 08:52:02;;;;;;;12.40;2.47;;;19.60;47.40;;;;;;6084817;23;20243;-83
2023/04/22 08:54:50;;;;;;;;;;;;;;;;;;;;;
2023/04/22 08:57:23;;;;;;;17.73;2.53;;;19.60;47.10;;;;;;6090127;23;20315;-84
2023/04/22 08:59:55;;;;;;;17.42;2.97;;;19.60;46.90;;;;;;6091614;23;20251;-85
2023/04/22 09:02:23;;;;;;;12.60;2.40;;;19.60;46.90;;;;;;6050593;23;20180;-83
2023/04/22 09:05:00;;;;;;;13.38;2.20;;;19.60;47.00;;;;;;6059022;23;20239;-84
2023/04/22 09:07:28;;;;;;;14.77;3.08;;;19.60;47.50;;;;;;6103010;23;20218;-81
2023/04/22 09:09:58;;;;;;;14.70;2.60;;;19.70;47.20;;;;;;6080302;23;20584;-83
2023/04/22 09:12:25;;;;;;;18.35;3.00;;;19.70;46.70;;;;;;6104098;23;20152;-82
2023/04/22 09:14:55;;;;;;;23.02;3.42;;;19.60;47.10;;;;;;6059478;23;20655;-83
2023/04/22 09:17:30;;;;;;;15.48;2.92;;;19.70;47.10;;;;;;6080273;23;20225;-83
2023/04/22 09:20:13;;;;;;;29.67;3.00;;;19.70;47.20;;;;;;6108405;23;20156;-85
2023/04/22 09:23:01;;;;;;;23.55;3.47;;;19.70;47.30;;;;;;6059360;23;20215;-84
2023/04/22 09:26:17;;;;;;;;;;;;;;;;;;;;;
2023/04/22 09:29:12;;;;;;;;;;;;;;;;;;;;;
2023/04/22 09:31:41;;;;;;;18.48;3.30;;;19.90;47.10;;;;;;6066443;23;20345;-83
2023/04/22 09:34:19;;;;;;;18.23;2.70;;;19.90;47.10;;;;;;6062064;23;20204;-84
2023/04/22 09:37:53;;;;;;;19.02;2.90;;;19.90;46.90;;;;;;6073353;23;20215;-83
2023/04/22 09:40:28;;;;;;;14.43;2.55;;;19.90;47.00;;;;;;5961290;24;20265;-82
2023/04/22 09:43:14;;;;;;;13.13;2.85;;;20.10;47.20;;;;;;5959065;24;20275;-84
2023/04/22 09:45:54;;;;;;;16.50;2.80;;;20.00;46.80;;;;;;5982482;23;20229;-81
2023/04/22 09:48:23;;;;;;;15.10;2.67;;;20.10;46.80;;;;;;5963107;23;20187;-82
2023/04/22 09:54:10;;;;;;;15.18;3.33;;;20.20;46.90;;;;;;5987738;24;20207;-81
2023/04/22 09:56:49;;;;;;;;;;;;;;;;;;;;;
2023/04/22 09:59:30;;;;;;;19.15;3.38;;;20.20;47.10;;;;;;6043878;23;20605;-82
2023/04/22 10:02:00;;;;;;;28.90;3.70;;;20.20;47.00;;;;;;6024234;23;20189;-82
2023/04/22 10:04:34;;;;;;;25.70;3.50;;;20.20;46.70;;;;;;6030570;23;20180;-83
2023/04/22 10:07:06;;;;;;;25.65;3.55;;;20.20;46.80;;;;;;6050302;23;20155;-82
2023/04/22 10:09:38;;;;;;;22.15;4.07;;;20.20;47.10;;;;;;6041021;23;20158;-82
2023/04/22 10:12:07;;;;;;;25.60;3.90;;;20.10;47.10;;;;;;5966729;23;20175;-83
2023/04/22 10:14:34;;;;;;;27.48;3.15;;;20.10;47.00;;;;;;6013782;23;20626;-83
2023/04/22 10:17:04;;;;;;;19.92;2.80;;;20.10;47.00;;;;;;6013118;23;20247;-84
2023/04/22 10:19:37;;;;;;;14.23;3.08;;;20.00;47.50;;;;;;6012618;23;20552;-83
2023/04/22 10:22:02;;;;;;;24.33;3.55;;;20.10;47.00;;;;;;5963696;23;20154;-82
2023/04/22 10:24:34;;;;;;;16.60;3.10;;;20.10;47.10;;;;;;6014010;23;20218;-83
2023/04/22 10:27:09;;;;;;;26.00;3.03;;;20.10;46.90;;;;;;6013351;23;20162;-83
2023/04/22 10:29:41;;;;;;;13.98;2.90;;;20.10;47.10;;;;;;5965813;23;20162;-83
2023/04/22 10:32:26;;;;;;;16.63;3.15;;;20.10;46.80;;;;;;6097926;23;20224;-83
2023/04/22 10:35:09;;;;;;;15.15;2.72;;;20.20;46.90;;;;;;6099752;23;20224;-81
2023/04/22 10:37:35;;;;;;;18.95;3.22;;;20.20;46.60;;;;;;6098417;23;20172;-82
2023/04/22 10:40:09;;;;;;;22.40;3.22;;;20.20;46.80;;;;;;6138557;23;20548;-84
2023/04/22 10:43:06;;;;;;;23.23;3.40;;;20.20;46.80;;;;;;6189457;23;20217;-83
2023/04/22 10:45:37;;;;;;;18.35;3.25;;;20.30;46.90;;;;;;6224813;23;20145;-84
2023/04/22 10:48:04;;;;;;;24.40;3.50;;;20.40;46.70;;;;;;6197187;23;20149;-84
2023/04/22 10:50:47;;;;;;;28.17;3.28;;;20.40;46.60;;;;;;6223436;23;20142;-81
2023/04/22 10:53:35;;;;;;;27.25;3.03;;;20.40;46.40;;;;;;6178114;23;20156;-83
2023/04/22 10:56:03;;;;;;;26.70;3.97;;;20.50;46.40;;;;;;6195931;23;20188;-83
2023/04/22 10:58:33;;;;;;;28.60;4.05;;;20.50;46.20;;;;;;6196769;23;20145;-83
2023/04/22 11:01:01;;;;;;;36.72;4.10;;;20.60;46.60;;;;;;6222296;23;20145;-83
2023/04/22 11:03:30;;;;;;;23.48;3.33;;;20.60;46.90;;;;;;6223031;23;20193;-82
2023/04/22 11:06:14;;;;;;;27.58;3.53;;;20.70;46.20;;;;;;6223644;23;20160;-83
2023/04/22 11:08:52;;;;;;;32.65;4.32;;;20.80;46.30;;;;;;6251146;23;20182;-82
2023/04/22 11:11:20;;;;;;;23.55;3.25;;;20.70;46.60;;;;;;6226165;23;20646;-83
2023/04/22 11:13:55;;;;;;;24.25;3.58;;;20.80;46.80;;;;;;6201440;23;20181;-82
2023/04/22 11:16:21;;;;;;;21.05;4.00;;;20.90;46.20;;;;;;6197493;23;20181;-81
2023/04/22 11:18:53;;;;;;;18.52;3.03;;;20.80;46.20;;;;;;6202286;23;20218;-83
2023/04/22 11:21:25;;;;;;;21.75;3.10;;;20.90;45.80;;;;;;6204852;23;20236;-83
2023/04/22 11:23:55;;;;;;;15.20;2.45;;;21.00;45.30;;;;;;6180087;23;20206;-83
2023/04/22 11:26:42;;;;;;;18.13;2.70;;;20.90;45.20;;;;;;6229215;23;20157;-83
2023/04/22 11:29:11;;;;;;;14.98;3.20;;;21.00;43.70;;;;;;6140756;23;20302;-82
2023/04/22 11:31:48;;;;;;;20.65;3.38;;;21.10;44.80;;;;;;6140213;23;20291;-83
2023/04/22 11:34:22;;;;;;;22.75;3.35;;;21.10;44.70;;;;;;6139151;23;20197;-83
2023/04/22 11:37:02;;;;;;;14.15;2.75;;;21.10;45.30;;;;;;6167108;23;20193;-85
2023/04/22 11:39:36;;;;;;;20.23;3.55;;;21.10;44.20;;;;;;6140453;23;20242;-82
2023/04/22 11:42:04;;;;;;;27.75;3.72;;;21.30;44.40;;;;;;6129394;23;20227;-85
2023/04/22 11:44:32;;;;;;;30.58;3.50;;;21.30;46.10;;;;;;6104483;23;20175;-83
2023/04/22 11:46:59;;;;;;;12.60;2.72;;;21.30;46.40;;;;;;6106605;23;20184;-82
2023/04/22 11:49:31;;;;;;;19.50;3.13;;;21.30;45.90;;;;;;6105423;23;20164;-81
2023/04/22 11:52:01;;;;;;;21.45;3.28;;;21.30;46.30;;;;;;6057960;23;20236;-82
2023/04/22 11:54:34;;;;;;;23.27;3.28;;;21.40;46.30;;;;;;6173488;23;20232;-82
2023/04/22 11:57:04;;;;;;;18.77;3.38;;;21.40;46.20;;;;;;6138357;23;20247;-84
2023/04/22 11:59:31;;;;;;;18.08;2.78;;;21.40;46.60;;;;;;6164901;23;20262;-83
2023/04/22 12:02:05;;;;;;;31.85;3.20;;;21.50;45.30;;;;;;6162904;23;20606;-83
2023/04/22 12:04:42;;;;;;;17.58;2.88;;;21.60;45.40;;;;;;6119234;23;20199;-82
2023/04/22 12:07:10;;;;;;;20.85;2.90;;;21.60;45.50;;;;;;6118714;23;20146;-82
2023/04/22 12:09:39;;;;;;;23.05;2.42;;;21.60;45.50;;;;;;6143218;23;20161;-80
2023/04/22 12:12:09;;;;;;;34.65;3.40;;;21.60;45.60;;;;;;6129156;22;20161;-80
2023/04/22 12:14:39;;;;;;;18.55;3.08;;;21.60;45.80;;;;;;6258904;22;20156;-80
2023/04/22 12:17:15;;;;;;;16.73;2.72;;;21.60;44.90;;;;;;6205446;22;20255;-82
2023/04/22 12:19:47;;;;;;;19.38;3.00;;;21.50;45.20;;;;;;6260948;22;20124;-82
2023/04/22 12:22:24;;;;;;;32.72;3.22;;;21.50;45.30;;;;;;6285825;22;20131;-82
2023/04/22 12:24:50;;;;;;;20.33;2.50;;;21.50;45.20;;;;;;6285836;22;20128;-82
2023/04/22 12:27:20;;;;;;;20.05;2.58;;;21.50;44.60;;;;;;6260272;22;20148;-82
2023/04/22 12:29:55;;;;;;;17.85;2.53;;;21.40;44.40;;;;;;6209147;22;20152;-85
2023/04/22 12:32:21;;;;;;;19.98;3.13;;;21.40;45.10;;;;;;6206787;22;20165;-81
2023/04/22 12:34:54;;;;;;;15.05;2.53;;;21.40;44.90;;;;;;6257387;22;20571;-80
2023/04/22 12:37:20;;;;;;;17.23;2.50;;;21.40;43.10;;;;;;6189875;23;20668;-83
2023/04/22 12:39:46;;;;;;;14.45;2.22;;;21.40;43.90;;;;;;6216423;23;20150;-84
2023/04/22 12:42:12;;;;;;;18.70;2.38;;;21.40;43.70;;;;;;6217346;23;20240;-83
2023/04/22 12:44:38;;;;;;;12.27;2.28;;;21.40;43.30;;;;;;6194895;23;20203;-82
2023/04/22 12:47:04;;;;;;;11.27;2.25;;;21.40;43.60;;;;;;6193972;23;20150;-82
2023/04/22 12:49:35;;;;;;;13.13;2.38;;;21.30;43.70;;;;;;6195460;23;20529;-83
2023/04/22 12:52:17;;;;;;;15.38;2.33;;;21.40;43.20;;;;;;6193084;23;20317;-82
2023/04/22 12:54:44;;;;;;;11.27;1.90;;;21.30;43.30;;;;;;6139332;23;20155;-82
2023/04/22 12:57:10;;;;;;;14.38;2.47;;;21.40;42.90;;;;;;6137138;23;20186;-84
2023/04/22 12:59:36;;;;;;;12.60;2.17;;;21.40;43.80;;;;;;6137769;23;20491;-84
2023/04/22 13:02:02;;;;;;;8.70;2.10;;;21.40;43.30;;;;;;6139044;23;20158;-85
2023/04/22 13:04:31;;;;;;;14.00;2.10;;;21.50;43.20;;;;;;6162047;23;20447;-82
2023/04/22 13:07:00;;;;;;;14.02;2.40;;;21.40;43.80;;;;;;6139969;23;20147;-84
2023/04/22 13:09:26;;;;;;;10.07;2.15;;;21.30;44.60;;;;;;6148087;23;20230;-83
2023/04/22 13:11:52;;;;;;;14.48;2.70;;;21.20;44.90;;;;;;6197689;23;20632;-82
2023/04/22 13:14:24;;;;;;;8.35;2.25;;;21.20;44.50;;;;;;6151240;23;20229;-84
2023/04/22 13:16:52;;;;;;;11.98;2.17;;;21.20;43.70;;;;;;6151532;23;20247;-82
2023/04/22 13:19:18;;;;;;;8.40;2.17;;;21.20;43.90;;;;;;6199106;23;20138;-83
2023/04/22 13:21:43;;;;;;;10.88;2.55;;;21.10;43.50;;;;;;6176890;23;20201;-85
2023/04/22 13:24:26;;;;;;;9.98;2.33;;;21.00;43.70;;;;;;6177962;23;20162;-81
2023/04/22 13:27:18;;;;;;;9.80;2.58;;;21.00;43.30;;;;;;6265844;22;20150;-80
2023/04/22 13:29:48;;;;;;;7.38;1.90;;;21.00;43.50;;;;;;6201030;22;20220;-81
2023/04/22 13:32:14;;;;;;;5.88;1.90;;;20.90;43.30;;;;;;6193424;22;20162;-83
2023/04/22 13:34:40;;;;;;;8.90;2.08;;;20.90;43.10;;;;;;6269481;22;20184;-82
2023/04/22 13:37:07;;;;;;;5.25;1.85;;;20.90;42.90;;;;;;6268358;22;20611;-81
2023/04/22 13:39:33;;;;;;;6.68;2.00;;;20.80;42.50;;;;;;6241223;22;20460;-84
2023/04/22 13:42:06;;;;;;;6.57;1.95;;;20.80;43.10;;;;;;6235771;22;20205;-82
2023/04/22 13:44:34;;;;;;;7.28;2.00;;;20.80;42.80;;;;;;6233792;22;20212;-82
2023/04/22 13:47:02;;;;;;;4.93;1.83;;;20.80;42.60;;;;;;6196377;23;20154;-86
2023/04/22 13:49:32;;;;;;;5.55;1.70;;;20.70;42.50;;;;;;6118247;23;20157;-84
2023/04/22 13:51:57;;;;;;;9.57;2.15;;;20.70;42.70;;;;;;6138991;23;20157;-83
2023/04/22 13:54:26;;;;;;;7.82;2.10;;;20.60;42.90;;;;;;6188380;23;20569;-83
2023/04/22 13:56:53;;;;;;;14.68;2.28;;;20.60;43.00;;;;;;6163993;23;20177;-85
2023/04/22 13:59:20;;;;;;;9.93;2.13;;;20.60;42.50;;;;;;6138932;23;20240;-84
2023/04/22 14:01:47;;;;;;;15.07;2.50;;;20.60;42.30;;;;;;6115252;23;20177;-84
2023/04/22 14:04:13;;;;;;;12.80;2.25;;;20.60;42.30;;;;;;6139550;23;20150;-82
2023/04/22 14:06:39;;;;;;;5.45;2.05;;;20.60;42.30;;;;;;6188837;23;20154;-83
2023/04/22 14:09:06;;;;;;;9.23;2.10;;;20.60;42.10;;;;;;6213882;23;20150;-83
2023/04/22 14:11:32;;;;;;;8.40;1.80;;;20.60;41.90;;;;;;6189032;23;20547;-83
2023/04/22 14:13:58;;;;;;;7.68;2.50;;;20.60;41.90;;;;;;6214612;23;20142;-85
2023/04/22 14:16:24;;;;;;;7.60;1.90;;;20.60;41.50;;;;;;6213391;23;20250;-85
2023/04/22 14:18:52;;;;;;;4.72;1.42;;;20.70;41.40;;;;;;6195343;23;20149;-85
2023/04/22 14:21:19;;;;;;;11.73;1.90;;;20.70;41.20;;;;;;6199811;23;20146;-84
2023/04/22 14:23:47;;;;;;;7.15;1.80;;;20.60;41.20;;;;;;6201118;23;20146;-85
2023/04/22 14:26:12;;;;;;;7.95;1.70;;;20.60;40.70;;;;;;6200441;23;20196;-85
2023/04/22 14:28:41;;;;;;;5.30;1.67;;;20.60;40.90;;;;;;6199546;23;20146;-85
2023/04/22 14:31:08;;;;;;;4.88;1.70;;;20.60;40.80;;;;;;6283332;22;20235;-86
2023/04/22 14:33:34;;;;;;;5.35;1.98;;;20.70;40.80;;;;;;6265788;22;20180;-85
2023/04/22 14:36:00;;;;;;;7.95;1.80;;;20.50;40.80;;;;;;6263407;22;20369;-85
2023/04/22 14:38:29;;;;;;;5.13;1.40;;;20.50;40.70;;;;;;6263694;22;20140;-86
2023/04/22 14:40:55;;;;;;;3.47;1.50;;;20.60;40.20;;;;;;6212011;22;20152;-85
2023/04/22 14:43:21;;;;;;;4.68;1.50;;;20.60;40.30;;;;;;6237682;22;20579;-85
2023/04/22 14:45:51;;;;;;;3.13;1.80;;;20.50;40.20;;;;;;6263475;22;20151;-85
2023/04/22 14:48:23;;;;;;;3.85;1.60;;;20.50;40.20;;;;;;6211120;22;20591;-85
2023/04/22 14:50:50;;;;;;;4.28;1.67;;;20.40;40.30;;;;;;6238928;22;20152;-86
2023/04/22 14:53:15;;;;;;;4.30;1.20;;;20.50;40.10;;;;;;6286124;22;20188;-86
2023/04/22 14:55:41;;;;;;;3.08;1.27;;;20.40;40.30;;;;;;6230689;22;20621;-88
2023/04/22 14:58:11;;;;;;;3.60;1.33;;;20.40;40.10;;;;;;6256187;22;20300;-87
2023/04/22 15:00:37;;;;;;;7.30;1.73;;;20.30;40.20;;;;;;6206608;22;20174;-86
2023/04/22 15:03:03;;;;;;;3.78;1.30;;;20.30;40.30;;;;;;6283156;22;20616;-87
2023/04/22 15:05:30;;;;;;;2.65;1.40;;;20.20;40.30;;;;;;6312180;22;20132;-85
2023/04/22 15:07:56;;;;;;;3.28;1.35;;;20.20;40.30;;;;;;6258688;22;20147;-86
2023/04/22 15:10:26;;;;;;;2.10;1.50;;;20.20;40.30;;;;;;6233151;22;20224;-89
2023/04/22 15:12:59;;;;;;;4.10;1.45;;;20.20;40.10;;;;;;6207313;22;20155;-85
2023/04/22 15:15:25;;;;;;;3.08;1.60;;;20.20;40.10;;;;;;6232770;22;20483;-87
2023/04/22 15:17:55;;;;;;;5.75;1.35;;;20.10;40.30;;;;;;6258675;22;20175;-84
2023/04/22 15:20:25;;;;;;;4.20;1.40;;;20.10;40.20;;;;;;6207429;22;20548;-85
2023/04/22 15:22:51;;;;;;;2.03;1.40;;;20.10;40.30;;;;;;6258028;22;20159;-86
2023/04/22 15:25:16;;;;;;;2.72;1.40;;;20.00;40.20;;;;;;6284002;22;20151;-84
2023/04/22 15:27:47;;;;;;;2.90;1.40;;;20.00;40.10;;;;;;6283611;22;20132;-88
2023/04/22 15:30:17;;;;;;;4.32;1.60;;;20.00;40.30;;;;;;6183079;22;20156;-85
2023/04/22 15:32:43;;;;;;;3.33;1.40;;;20.00;40.30;;;;;;6232297;22;20625;-85
2023/04/22 15:35:10;;;;;;;3.05;1.48;;;19.90;40.40;;;;;;6259057;22;20167;-88
2023/04/22 15:37:36;;;;;;;2.10;1.40;;;19.90;40.40;;;;;;6235000;22;20243;-88
2023/04/22 15:40:05;;;;;;;2.75;1.40;;;19.90;40.30;;;;;;6258904;22;20140;-88
2023/04/22 15:42:35;;;;;;;5.07;1.63;;;19.90;40.40;;;;;;6262302;22;20168;-86
2023/04/22 15:45:01;;;;;;;1.48;1.38;;;19.90;40.30;;;;;;6208874;22;20156;-85
2023/04/22 15:47:27;;;;;;;3.05;1.40;;;19.90;40.40;;;;;;6236189;22;20162;-85
2023/04/22 15:49:55;;;;;;;1.85;1.38;;;19.90;40.40;;;;;;6285625;22;20129;-88
2023/04/22 15:52:21;;;;;;;4.30;1.30;;;19.90;40.40;;;;;;6260852;22;20152;-85
2023/04/22 15:54:48;;;;;;;3.50;1.38;;;19.90;40.60;;;;;;6284143;22;20140;-87
2023/04/22 15:57:14;;;;;;;3.35;1.27;;;19.80;40.30;;;;;;6284537;22;20240;-86
2023/04/22 15:59:40;;;;;;;1.42;1.30;;;19.70;40.30;;;;;;6284958;22;20568;-87
2023/04/22 16:02:06;;;;;;;1.63;1.30;;;19.80;40.20;;;;;;6285373;22;20131;-87
2023/04/22 16:04:32;;;;;;;1.95;1.60;;;19.80;40.20;;;;;;6235191;22;20198;-85
2023/04/22 16:06:58;;;;;;;1.30;1.20;;;19.70;40.20;;;;;;6286615;22;20148;-87
2023/04/22 16:09:24;;;;;;;1.90;1.58;;;19.70;40.30;;;;;;6284258;22;20510;-85
2023/04/22 16:11:51;;;;;;;2.08;1.30;;;19.70;40.20;;;;;;6284452;22;20464;-85
2023/04/22 16:14:17;;;;;;;3.15;1.33;;;19.60;40.10;;;;;;6285209;22;20136;-87